Time;durP1;ratioP1;P1;durP2;ratioP2;P2;SDS_P1;SDS_P2;PMS_P1;PMS_P2;Temp;Humidity;BMP_temperature;BMP_pressure;BME280_temperature;BME280_humidity;BME280_pressure;Samples;Min_cycle;Max_cycle;Signal;HPM_P1;HPM_P2
2023/01/06 00:00:11;;;;;;;2.23;1.90;;;;;7.70;94623.00;;;;7402694;19;20153;-81
2023/01/06 00:02:41;;;;;;;2.30;2.10;;;;;7.70;94616.00;;;;7403101;19;20137;-79
2023/01/06 00:05:08;;;;;;;2.73;2.00;;;;;7.70;94609.00;;;;7402283;19;20544;-78
2023/01/06 00:07:50;;;;;;;4.00;2.50;;;;;7.70;94607.00;;;;7404032;19;20539;-79
2023/01/06 00:10:18;;;;;;;3.93;2.40;;;;;7.80;94615.00;;;;7400862;19;20156;-79
2023/01/06 00:12:54;;;;;;;3.67;2.33;;;;;7.90;94602.00;;;;7402714;19;20133;-79
2023/01/06 00:15:21;;;;;;;2.87;2.10;;;;;7.90;94598.00;;;;7404985;19;20158;-81
2023/01/06 00:17:50;;;;;;;4.40;2.43;;;;;7.80;94603.00;;;;7402138;19;20129;-81
2023/01/06 00:20:24;;;;;;;3.93;2.47;;;;;7.90;94602.00;;;;7401638;19;20164;-79
2023/01/06 00:22:54;;;;;;;2.63;2.13;;;;;7.90;94596.00;;;;7403246;19;20129;-78
2023/01/06 00:25:24;;;;;;;4.00;2.07;;;;;7.90;94590.00;;;;7399047;19;20141;-79
2023/01/06 00:27:58;;;;;;;4.73;1.80;;;;;7.90;94587.00;;;;7401501;19;20176;-81
2023/01/06 00:30:27;;;;;;;3.57;1.90;;;;;7.90;94586.00;;;;7396300;19;20825;-81
2023/01/06 00:32:54;;;;;;;2.30;2.07;;;;;7.90;94587.00;;;;7399042;19;20623;-81
2023/01/06 00:35:29;;;;;;;3.87;2.37;;;;;7.90;94576.00;;;;7399305;19;20603;-78
2023/01/06 00:37:57;;;;;;;2.30;1.90;;;;;7.80;94579.00;;;;7398734;19;20186;-78
2023/01/06 00:40:27;;;;;;;2.63;2.10;;;;;7.80;94577.00;;;;7393843;19;20152;-78
2023/01/06 00:43:03;;;;;;;3.17;2.10;;;;;7.90;94576.00;;;;7398694;19;20170;-80
2023/01/06 00:45:31;;;;;;;6.33;2.23;;;;;7.90;94571.00;;;;7394728;19;20510;-81
2023/01/06 06:04:29;;;;;;;1.33;0.90;;;;;8.00;94445.00;;;;7402590;19;20192;-91
2023/01/06 06:10:43;;;;;;;2.50;1.03;;;;;8.10;94457.00;;;;7395605;19;20188;-91
2023/01/06 06:13:18;;;;;;;1.10;0.80;;;;;8.10;94462.00;;;;7408821;19;20141;-91
2023/01/06 06:16:01;;;;;;;1.40;0.90;;;;;8.10;94453.00;;;;7410472;19;20173;-91
2023/01/06 06:18:41;;;;;;;0.90;0.90;;;;;8.10;94446.00;;;;7408997;19;20141;-90
2023/01/06 06:21:15;;;;;;;1.40;0.97;;;;;8.00;94452.00;;;;7406986;19;20153;-90
2023/01/06 06:23:51;;;;;;;1.10;1.00;;;;;8.10;94450.00;;;;7411100;19;20152;-89
2023/01/06 06:26:34;;;;;;;1.20;1.10;;;;;8.10;94454.00;;;;7407364;19;20623;-90
2023/01/06 06:29:13;;;;;;;0.80;0.80;;;;;8.10;94457.00;;;;7407467;19;20145;-90
2023/01/06 06:31:40;;;;;;;0.97;0.87;;;;;8.10;94457.00;;;;7409334;19;20236;-91
2023/01/06 06:34:16;;;;;;;0.93;0.80;;;;;8.10;94464.00;;;;7410238;19;20148;-92
2023/01/06 06:36:45;;;;;;;1.13;0.90;;;;;8.10;94458.00;;;;7409226;19;20149;-90
2023/01/06 06:39:13;;;;;;;1.23;1.07;;;;;8.10;94476.00;;;;7409148;19;20185;-89
2023/01/06 06:41:47;;;;;;;1.20;1.10;;;;;8.00;94466.00;;;;7407164;19;20144;-91
2023/01/06 06:44:15;;;;;;;2.30;1.20;;;;;7.90;94469.00;;;;7407004;19;20145;-92
2023/01/06 06:46:42;;;;;;;1.47;1.37;;;;;8.00;94471.00;;;;7408688;19;20274;-90
2023/01/06 06:49:16;;;;;;;1.30;1.20;;;;;7.90;94484.00;;;;7407623;19;20169;-91
2023/01/06 06:51:46;;;;;;;1.20;1.10;;;;;7.90;94492.00;;;;7405984;19;20161;-89
2023/01/06 06:54:14;;;;;;;1.10;1.00;;;;;7.90;94481.00;;;;7403295;19;20152;-87
2023/01/06 06:56:48;;;;;;;1.30;1.07;;;;;7.90;94479.00;;;;7407972;19;20121;-87
2023/01/06 06:59:16;;;;;;;1.30;1.17;;;;;7.90;94488.00;;;;7407564;19;20141;-89
2023/01/06 07:01:49;;;;;;;0.93;0.63;;;;;7.80;94488.00;;;;7406739;19;20208;-87
2023/01/06 07:04:23;;;;;;;1.40;0.93;;;;;7.90;94493.00;;;;7401231;19;20240;-87
2023/01/06 07:06:51;;;;;;;0.40;0.40;;;;;8.00;94489.00;;;;7406894;19;20151;-89
2023/01/06 07:09:22;;;;;;;0.30;0.30;;;;;7.80;94499.00;;;;7405694;19;20579;-88
2023/01/06 07:12:08;;;;;;;0.30;0.30;;;;;7.70;94514.00;;;;7406716;19;20232;-89
2023/01/06 07:14:35;;;;;;;0.50;0.50;;;;;7.80;94509.00;;;;7404637;19;20156;-88
2023/01/06 07:17:09;;;;;;;0.43;0.33;;;;;7.70;94514.00;;;;7408490;19;20164;-89
2023/01/06 07:19:38;;;;;;;0.40;0.40;;;;;7.70;94491.00;;;;7410207;19;20194;-89
2023/01/06 07:22:05;;;;;;;0.30;0.30;;;;;7.50;94502.00;;;;7408506;19;20140;-91
2023/01/06 07:24:46;;;;;;;0.40;0.20;;;;;7.50;94501.00;;;;7406040;19;20218;-90
2023/01/06 07:27:16;;;;;;;0.60;0.37;;;;;7.50;94504.00;;;;7407176;19;20117;-91
2023/01/06 07:29:51;;;;;;;0.77;0.40;;;;;7.40;94508.00;;;;7407432;19;20127;-91
2023/01/06 07:32:19;;;;;;;0.83;0.40;;;;;7.40;94507.00;;;;7407784;19;20137;-89
2023/01/06 07:34:46;;;;;;;0.20;0.20;;;;;7.40;94501.00;;;;7406009;19;20152;-91
2023/01/06 07:37:20;;;;;;;0.30;0.30;;;;;7.30;94513.00;;;;7406048;19;20572;-89
2023/01/06 07:39:49;;;;;;;0.20;0.20;;;;;7.20;94510.00;;;;7408691;19;20140;-90
2023/01/06 07:42:21;;;;;;;0.27;0.27;;;;;7.30;94520.00;;;;7414036;19;20200;-91
2023/01/06 07:44:56;;;;;;;0.40;0.30;;;;;7.30;94530.00;;;;7414742;19;20148;-89
2023/01/06 07:47:24;;;;;;;0.30;0.30;;;;;7.10;94542.00;;;;7412381;19;20161;-90
2023/01/06 07:49:52;;;;;;;0.80;0.60;;;;;7.00;94538.00;;;;7413320;19;20137;-91
2023/01/06 07:52:32;;;;;;;0.70;0.70;;;;;6.90;94538.00;;;;7412032;19;20165;-91
2023/01/06 07:55:00;;;;;;;0.57;0.57;;;;;6.80;94552.00;;;;7409916;19;20465;-90
2023/01/06 07:57:35;;;;;;;0.70;0.70;;;;;6.70;94542.00;;;;7412777;19;20188;-91
2023/01/06 08:00:03;;;;;;;0.70;0.70;;;;;6.90;94548.00;;;;7412727;19;20138;-91
2023/01/06 08:02:31;;;;;;;0.70;0.60;;;;;6.70;94546.00;;;;7412949;19;20152;-93
2023/01/06 08:05:06;;;;;;;0.70;0.60;;;;;6.60;94551.00;;;;7414011;19;20215;-91
2023/01/06 08:07:34;;;;;;;0.80;0.53;;;;;6.60;94545.00;;;;7413678;19;20129;-91
2023/01/06 08:10:03;;;;;;;0.60;0.57;;;;;6.60;94542.00;;;;7413557;19;20168;-89
2023/01/06 08:12:38;;;;;;;1.53;0.70;;;;;6.50;94543.00;;;;7414070;19;20141;-90
2023/01/06 08:15:08;;;;;;;0.40;0.40;;;;;6.60;94546.00;;;;7404732;19;20145;-92
2023/01/06 08:17:36;;;;;;;0.90;0.80;;;;;6.70;94538.00;;;;7412106;19;20212;-90
2023/01/06 08:20:11;;;;;;;0.70;0.70;;;;;6.70;94547.00;;;;7409779;19;20144;-91
2023/01/06 08:22:39;;;;;;;0.40;0.40;;;;;6.60;94556.00;;;;7411440;19;20580;-90
2023/01/06 08:25:07;;;;;;;2.87;0.70;;;;;6.70;94537.00;;;;7413109;19;20145;-89
2023/01/06 08:27:49;;;;;;;1.77;0.70;;;;;6.80;94543.00;;;;7416530;19;20159;-92
2023/01/06 08:30:20;;;;;;;0.90;0.60;;;;;6.70;94545.00;;;;7414844;19;20125;-91
2023/01/06 08:32:58;;;;;;;0.70;0.70;;;;;6.60;94556.00;;;;7421228;19;20137;-90
2023/01/06 08:35:28;;;;;;;0.80;0.57;;;;;6.50;94549.00;;;;7415926;19;20149;-91
2023/01/06 08:38:08;;;;;;;2.07;0.43;;;;;6.50;94549.00;;;;7410809;19;20120;-90
2023/01/06 08:40:36;;;;;;;1.70;0.47;;;;;6.70;94547.00;;;;7412908;19;20173;-90
2023/01/06 08:43:10;;;;;;;1.47;0.70;;;;;6.60;94548.00;;;;7412900;19;20181;-90
2023/01/06 08:45:44;;;;;;;0.67;0.57;;;;;6.70;94556.00;;;;7411793;19;20140;-88
2023/01/06 08:48:11;;;;;;;0.40;0.40;;;;;6.80;94548.00;;;;7411448;19;20136;-89
2023/01/06 08:50:52;;;;;;;1.37;0.50;;;;;6.90;94554.00;;;;7404902;19;20149;-89
2023/01/06 08:53:39;;;;;;;0.57;0.57;;;;;7.00;94557.00;;;;7410413;19;20699;-88
2023/01/06 08:56:19;;;;;;;0.40;0.40;;;;;7.10;94560.00;;;;7409654;19;20516;-90
2023/01/06 08:58:59;;;;;;;1.17;0.60;;;;;7.20;94563.00;;;;7414063;19;20169;-89
2023/01/06 09:01:35;;;;;;;0.50;0.40;;;;;7.00;94575.00;;;;7409713;19;20125;-87
2023/01/06 09:04:11;;;;;;;1.90;0.47;;;;;7.10;94568.00;;;;7405098;19;20264;-88
2023/01/06 09:06:41;;;;;;;0.60;0.50;;;;;7.00;94567.00;;;;7407971;19;20145;-88
2023/01/06 09:09:23;;;;;;;0.43;0.43;;;;;7.10;94567.00;;;;7406257;19;20121;-86
2023/01/06 09:11:59;;;;;;;0.50;0.30;;;;;7.10;94553.00;;;;7400003;19;20149;-82
2023/01/06 09:14:34;;;;;;;2.23;0.37;;;;;7.20;94569.00;;;;7403048;19;20204;-80
2023/01/06 09:17:02;;;;;;;0.30;0.30;;;;;7.30;94558.00;;;;7403455;19;20154;-80
2023/01/06 09:19:38;;;;;;;0.53;0.30;;;;;7.00;94555.00;;;;7398953;19;20156;-79
2023/01/06 09:22:12;;;;;;;0.60;0.30;;;;;7.20;94553.00;;;;7399766;19;20152;-80
2023/01/06 09:24:40;;;;;;;1.20;0.40;;;;;7.00;94567.00;;;;7400012;19;20160;-82
2023/01/06 09:27:14;;;;;;;0.20;0.20;;;;;7.40;94566.00;;;;7400403;19;20625;-81
2023/01/06 09:29:50;;;;;;;0.30;0.30;;;;;7.20;94563.00;;;;7399650;19;20156;-83
2023/01/06 09:32:17;;;;;;;0.63;0.30;;;;;7.20;94561.00;;;;7399706;19;20148;-85
2023/01/06 09:34:45;;;;;;;0.50;0.27;;;;;7.20;94571.00;;;;7397787;19;20201;-81
2023/01/06 09:37:22;;;;;;;0.27;0.27;;;;;7.40;94566.00;;;;7399372;19;20140;-82
2023/01/06 09:39:49;;;;;;;0.20;0.20;;;;;7.40;94575.00;;;;7393812;19;20185;-83
2023/01/06 09:42:22;;;;;;;0.53;0.30;;;;;7.80;94583.00;;;;7396568;19;20177;-80
2023/01/06 09:45:41;;;;;;;0.87;0.40;;;;;7.70;94580.00;;;;7397963;19;20157;-82
2023/01/06 09:48:15;;;;;;;0.40;0.23;;;;;7.40;94578.00;;;;7397316;19;20144;-82
2023/01/06 09:51:04;;;;;;;0.30;0.30;;;;;7.40;94576.00;;;;7392613;19;20156;-81
2023/01/06 09:53:43;;;;;;;0.30;0.30;;;;;7.40;94573.00;;;;7399369;19;20153;-82
2023/01/06 09:56:23;;;;;;;1.80;0.40;;;;;7.50;94566.00;;;;7397465;19;20614;-82
2023/01/06 09:59:30;;;;;;;0.40;0.40;;;;;7.70;94558.00;;;;7399324;19;20635;-80
2023/01/06 10:02:26;;;;;;;0.30;0.30;;;;;7.60;94556.00;;;;7399843;19;20147;-83
2023/01/06 10:04:54;;;;;;;0.50;0.50;;;;;7.30;94557.00;;;;7400233;19;20192;-84
2023/01/06 10:08:10;;;;;;;0.53;0.47;;;;;7.60;94551.00;;;;7397704;19;20133;-82
2023/01/06 10:10:50;;;;;;;1.60;0.57;;;;;7.80;94540.00;;;;7394276;19;20272;-84
2023/01/06 10:13:31;;;;;;;0.40;0.40;;;;;7.90;94533.00;;;;7399318;19;20188;-83
2023/01/06 10:16:11;;;;;;;0.90;0.50;;;;;7.80;94527.00;;;;7395923;19;20176;-80
2023/01/06 10:18:52;;;;;;;0.50;0.40;;;;;8.00;94513.00;;;;7398035;19;20647;-82
2023/01/06 10:21:55;;;;;;;0.50;0.30;;;;;8.20;94511.00;;;;7395758;19;20160;-83
2023/01/06 10:24:54;;;;;;;0.77;0.33;;;;;8.20;94507.00;;;;7395904;19;20615;-85
2023/01/06 10:27:43;;;;;;;0.90;0.30;;;;;8.50;94501.00;;;;7399069;19;20148;-84
2023/01/06 10:30:33;;;;;;;0.30;0.30;;;;;8.60;94500.00;;;;7397712;19;20184;-83
2023/01/06 10:33:11;;;;;;;0.70;0.30;;;;;8.50;94497.00;;;;7399280;19;20163;-83
2023/01/06 10:35:47;;;;;;;0.30;0.30;;;;;8.70;94495.00;;;;7398470;19;20224;-84
2023/01/06 10:38:15;;;;;;;0.20;0.20;;;;;8.70;94496.00;;;;7398186;19;20179;-84
2023/01/06 10:40:45;;;;;;;1.33;0.20;;;;;8.70;94504.00;;;;7397679;19;20219;-82
2023/01/06 10:43:22;;;;;;;0.13;0.13;;;;;8.40;94496.00;;;;7395254;19;20199;-84
2023/01/06 10:45:58;;;;;;;0.70;0.40;;;;;8.70;94494.00;;;;7396153;19;20163;-84
2023/01/06 10:48:34;;;;;;;0.20;0.20;;;;;8.80;94489.00;;;;7395632;19;20156;-84
2023/01/06 10:51:38;;;;;;;0.73;0.70;;;;;8.70;94494.00;;;;7396900;19;20182;-85
2023/01/06 10:54:17;;;;;;;0.20;0.20;;;;;8.90;94487.00;;;;7396078;19;20215;-81
2023/01/06 10:57:00;;;;;;;0.22;0.20;;;;;8.90;94491.00;;;;7398589;19;20167;-83
2023/01/06 11:00:11;;;;;;;0.10;0.10;;;;;8.90;94503.00;;;;7401101;19;20129;-85
2023/01/06 11:02:48;;;;;;;0.20;0.20;;;;;9.10;94500.00;;;;7402624;19;20176;-86
2023/01/06 11:05:43;;;;;;;0.20;0.20;;;;;9.30;94501.00;;;;7399765;19;20128;-83
2023/01/06 11:08:14;;;;;;;0.32;0.20;;;;;8.50;94494.00;;;;7401847;19;20478;-84
2023/01/06 11:11:03;;;;;;;0.10;0.10;;;;;8.30;94508.00;;;;7399829;19;20188;-84
2023/01/06 11:13:57;;;;;;;0.43;0.20;;;;;8.20;94508.00;;;;7403879;19;20124;-81
2023/01/06 11:16:34;;;;;;;0.10;0.10;;;;;8.30;94510.00;;;;7408476;19;20176;-83
2023/01/06 11:19:21;;;;;;;0.20;0.20;;;;;8.60;94500.00;;;;7408731;19;20151;-83
2023/01/06 11:21:56;;;;;;;0.40;0.30;;;;;8.70;94497.00;;;;7409157;19;20159;-84
2023/01/06 11:24:31;;;;;;;0.97;0.10;;;;;8.60;94500.00;;;;7409406;19;20129;-84
2023/01/06 11:27:19;;;;;;;1.07;0.30;;;;;9.00;94502.00;;;;7409340;19;20611;-83
2023/01/06 11:29:49;;;;;;;0.40;0.30;;;;;9.10;94485.00;;;;7407754;19;20985;-85
2023/01/06 11:32:28;;;;;;;0.20;0.20;;;;;9.00;94479.00;;;;7410284;19;20149;-83
2023/01/06 11:35:00;;;;;;;0.10;0.10;;;;;9.10;94475.00;;;;7410510;19;20164;-82
2023/01/06 11:37:40;;;;;;;0.15;0.15;;;;;9.30;94469.00;;;;7404854;19;20151;-81
2023/01/06 11:40:31;;;;;;;0.25;0.22;;;;;9.70;94460.00;;;;7412928;19;20152;-85
2023/01/06 11:43:30;;;;;;;0.20;0.13;;;;;9.40;94471.00;;;;7407999;19;20152;-84
2023/01/06 11:46:07;;;;;;;0.40;0.30;;;;;9.40;94476.00;;;;7409158;19;20144;-82
2023/01/06 11:49:05;;;;;;;0.20;0.20;;;;;9.30;94475.00;;;;7406440;19;20137;-84
2023/01/06 11:51:41;;;;;;;0.32;0.10;;;;;10.20;94472.00;;;;7407929;19;20149;-85
2023/01/06 11:54:25;;;;;;;0.40;0.40;;;;;10.00;94475.00;;;;7408739;19;20145;-84
2023/01/06 11:57:33;;;;;;;0.20;0.20;;;;;9.90;94467.00;;;;7403775;19;20157;-82
2023/01/06 12:00:50;;;;;;;0.30;0.30;;;;;9.40;94470.00;;;;7402473;19;20168;-83
2023/01/06 12:03:24;;;;;;;0.10;0.10;;;;;9.10;94472.00;;;;7403463;19;20611;-80
2023/01/06 12:06:37;;;;;;;0.10;0.10;;;;;9.50;94465.00;;;;7401127;19;20141;-82
2023/01/06 12:09:35;;;;;;;0.30;0.20;;;;;9.50;94463.00;;;;7401630;19;20149;-83
2023/01/06 12:12:22;;;;;;;1.10;0.22;;;;;9.50;94466.00;;;;7400219;19;20231;-81
2023/01/06 12:14:55;;;;;;;0.32;0.32;;;;;9.10;94454.00;;;;7402802;19;20603;-83
2023/01/06 12:17:52;;;;;;;0.20;0.20;;;;;8.80;94460.00;;;;7400372;19;20160;-84
2023/01/06 12:20:36;;;;;;;3.60;0.30;;;;;8.90;94467.00;;;;7402619;19;20212;-82
2023/01/06 12:23:34;;;;;;;0.25;0.25;;;;;8.50;94451.00;;;;7398919;19;20157;-85
2023/01/06 12:26:14;;;;;;;0.38;0.38;;;;;8.40;94443.00;;;;7401106;19;20143;-84
2023/01/06 12:29:25;;;;;;;0.32;0.32;;;;;8.70;94454.00;;;;7400369;19;20143;-84
2023/01/06 12:42:48;;;;;;;0.57;0.45;;;;;8.80;94435.00;;;;7395888;19;20176;-83
2023/01/06 13:00:19;;;;;;;0.40;0.40;;;;;8.50;94452.00;;;;7404006;19;20487;-84
2023/01/06 13:03:18;;;;;;;1.43;0.40;;;;;8.50;94456.00;;;;7406583;19;20738;-85
2023/01/06 13:05:46;;;;;;;0.40;0.40;;;;;8.60;94449.00;;;;7402102;19;20153;-84
2023/01/06 13:08:58;;;;;;;0.83;0.37;;;;;8.90;94458.00;;;;7403154;19;20161;-85
2023/01/06 13:18:18;;;;;;;1.20;0.50;;;;;8.00;94464.00;;;;7400184;19;20152;-84
2023/01/06 13:21:11;;;;;;;0.60;0.50;;;;;8.30;94476.00;;;;7399624;19;20156;-84
2023/01/06 13:23:52;;;;;;;0.40;0.40;;;;;8.10;94467.00;;;;7401624;19;20141;-84
2023/01/06 13:26:52;;;;;;;1.53;0.40;;;;;8.30;94475.00;;;;7399764;19;20168;-84
2023/01/06 13:29:29;;;;;;;0.53;0.20;;;;;8.20;94467.00;;;;7400644;19;20157;-82
2023/01/06 13:32:47;;;;;;;0.47;0.40;;;;;8.20;94470.00;;;;7398962;19;20153;-83
2023/01/06 13:35:53;;;;;;;0.57;0.10;;;;;8.30;94474.00;;;;7401522;19;20141;-83
2023/01/06 13:39:08;;;;;;;0.33;0.33;;;;;8.20;94469.00;;;;7395998;19;20133;-81
2023/01/06 13:41:42;;;;;;;1.90;0.50;;;;;8.30;94462.00;;;;7397934;19;20149;-83
2023/01/06 13:44:24;;;;;;;0.30;0.30;;;;;8.30;94463.00;;;;7400699;19;20212;-80
2023/01/06 13:46:59;;;;;;;0.37;0.30;;;;;8.10;94464.00;;;;7402446;19;20155;-81
2023/01/06 13:49:41;;;;;;;0.30;0.30;;;;;8.00;94468.00;;;;7401852;19;20125;-83
2023/01/06 13:52:25;;;;;;;0.30;0.30;;;;;8.10;94470.00;;;;7402831;19;20222;-83
2023/01/06 13:55:22;;;;;;;0.30;0.23;;;;;8.30;94479.00;;;;7392655;19;20618;-81
2023/01/06 13:57:51;;;;;;;1.33;0.77;;;;;7.80;94471.00;;;;7396656;19;20228;-85
2023/01/06 14:00:27;;;;;;;0.40;0.40;;;;;7.90;94474.00;;;;7399356;19;20167;-81
2023/01/06 14:03:01;;;;;;;0.40;0.30;;;;;8.10;94479.00;;;;7397148;19;20722;-84
2023/01/06 14:05:38;;;;;;;0.50;0.47;;;;;8.20;94476.00;;;;7397955;19;20152;-83
2023/01/06 14:08:16;;;;;;;0.37;0.37;;;;;8.20;94475.00;;;;7394283;19;20595;-80
2023/01/06 14:11:07;;;;;;;0.23;0.23;;;;;8.30;94481.00;;;;7393320;19;20253;-83
2023/01/06 14:13:57;;;;;;;0.60;0.60;;;;;7.90;94468.00;;;;7393607;19;20149;-86
2023/01/06 14:16:58;;;;;;;0.73;0.70;;;;;7.90;94474.00;;;;7393654;19;20160;-83
2023/01/06 14:19:36;;;;;;;1.60;0.60;;;;;8.00;94476.00;;;;7392908;19;20164;-82
2023/01/06 14:22:30;;;;;;;1.73;1.00;;;;;8.10;94479.00;;;;7393364;19;20164;-85
2023/01/06 14:25:03;;;;;;;0.60;0.53;;;;;7.90;94476.00;;;;7391655;19;20158;-82
2023/01/06 14:27:49;;;;;;;1.00;0.60;;;;;8.00;94476.00;;;;7394896;19;20156;-82
2023/01/06 14:30:28;;;;;;;0.60;0.53;;;;;7.90;94481.00;;;;7394538;19;20152;-81
2023/01/06 14:33:24;;;;;;;0.90;0.53;;;;;7.80;94489.00;;;;7394836;19;20157;-81
2023/01/06 14:36:09;;;;;;;1.10;0.63;;;;;7.90;94490.00;;;;7394618;19;20491;-83
2023/01/06 14:38:53;;;;;;;0.83;0.83;;;;;8.00;94483.00;;;;7393530;19;20634;-84
2023/01/06 14:41:42;;;;;;;0.60;0.60;;;;;7.70;94496.00;;;;7394096;19;20182;-83
2023/01/06 14:44:43;;;;;;;1.83;0.43;;;;;8.10;94491.00;;;;7394138;19;20184;-82
2023/01/06 14:47:27;;;;;;;0.50;0.50;;;;;8.00;94490.00;;;;7392679;19;20592;-83
2023/01/06 14:50:06;;;;;;;1.07;0.77;;;;;7.80;94480.00;;;;7389412;19;20136;-81
2023/01/06 14:52:39;;;;;;;0.50;0.50;;;;;7.90;94484.00;;;;7389584;19;20758;-83
2023/01/06 14:55:18;;;;;;;0.65;0.63;;;;;7.90;94488.00;;;;7391726;19;20143;-83
2023/01/06 14:57:46;;;;;;;2.23;0.87;;;;;7.90;94492.00;;;;7391755;19;20698;-79
2023/01/06 15:00:23;;;;;;;0.53;0.50;;;;;7.60;94489.00;;;;7392676;19;20494;-81
2023/01/06 15:03:16;;;;;;;0.63;0.60;;;;;7.90;94496.00;;;;7391420;19;20164;-81
2023/01/06 15:05:46;;;;;;;0.60;0.60;;;;;7.80;94493.00;;;;7390575;19;20501;-83
2023/01/06 15:08:33;;;;;;;0.67;0.60;;;;;8.00;94496.00;;;;7392565;19;20156;-81
2023/01/06 15:11:41;;;;;;;1.30;0.67;;;;;7.80;94495.00;;;;7385243;19;20176;-80
2023/01/06 15:14:40;;;;;;;0.50;0.50;;;;;7.60;94496.00;;;;7388724;19;20637;-82
2023/01/06 15:17:12;;;;;;;3.00;0.83;;;;;7.50;94493.00;;;;7387836;19;20144;-82
2023/01/06 15:19:52;;;;;;;1.10;1.00;;;;;7.60;94499.00;;;;7392723;19;20128;-81
2023/01/06 15:22:25;;;;;;;0.53;0.53;;;;;7.80;94494.00;;;;7391541;19;20141;-82
2023/01/06 15:25:02;;;;;;;0.60;0.60;;;;;7.70;94495.00;;;;7391825;19;20156;-82
2023/01/06 15:27:30;;;;;;;1.27;0.83;;;;;7.70;94494.00;;;;7392078;19;20157;-83
2023/01/06 15:30:18;;;;;;;0.53;0.50;;;;;7.40;94496.00;;;;7390144;19;20152;-83
2023/01/06 15:32:55;;;;;;;0.63;0.50;;;;;7.60;94497.00;;;;7392350;19;20193;-83
2023/01/06 15:35:29;;;;;;;0.53;0.53;;;;;7.70;94496.00;;;;7392096;19;20184;-81
2023/01/06 15:38:27;;;;;;;1.10;0.93;;;;;7.60;94497.00;;;;7390366;19;20176;-81
2023/01/06 15:40:59;;;;;;;0.60;0.50;;;;;7.50;94499.00;;;;7390104;19;20161;-81
2023/01/06 15:43:42;;;;;;;0.90;0.90;;;;;7.50;94497.00;;;;7391390;19;20165;-79
2023/01/06 15:46:12;;;;;;;1.53;0.60;;;;;7.60;94504.00;;;;7391498;19;20148;-81
2023/01/06 15:49:33;;;;;;;0.63;0.63;;;;;7.60;94501.00;;;;7401702;19;20172;-89
2023/01/06 15:52:06;;;;;;;1.70;1.20;;;;;7.60;94503.00;;;;7404953;19;20169;-91
2023/01/06 15:54:44;;;;;;;0.73;0.73;;;;;7.70;94500.00;;;;7399741;19;20256;-91
2023/01/06 15:57:16;;;;;;;0.90;0.90;;;;;7.60;94500.00;;;;7397953;19;20178;-91
2023/01/06 16:00:04;;;;;;;1.83;1.10;;;;;7.70;94504.00;;;;7403282;19;20152;-91
2023/01/06 16:02:36;;;;;;;1.57;1.10;;;;;7.60;94499.00;;;;7416069;19;20172;-94
2023/01/06 16:05:32;;;;;;;1.00;0.90;;;;;7.50;94500.00;;;;7411451;19;20155;-90
2023/01/06 16:08:14;;;;;;;2.80;1.17;;;;;7.40;94506.00;;;;7413045;19;20149;-92
2023/01/06 16:11:54;;;;;;;4.33;2.03;;;;;7.50;94508.00;;;;7409472;19;20235;-92
2023/01/06 16:14:53;;;;;;;1.30;1.20;;;;;7.50;94510.00;;;;7397370;19;20163;-84
2023/01/06 16:17:31;;;;;;;1.70;1.60;;;;;7.50;94513.00;;;;7396646;19;20789;-82
2023/01/06 16:20:20;;;;;;;1.63;1.23;;;;;7.30;94523.00;;;;7396069;19;20153;-84
2023/01/06 16:22:55;;;;;;;3.10;1.80;;;;;7.40;94513.00;;;;7399450;19;20224;-83
2023/01/06 16:25:30;;;;;;;2.13;1.40;;;;;7.40;94512.00;;;;7405623;19;20157;-90
2023/01/06 16:28:28;;;;;;;4.33;1.30;;;;;7.50;94516.00;;;;7408797;19;20148;-90
2023/01/06 16:31:39;;;;;;;2.03;1.20;;;;;7.40;94512.00;;;;7410034;19;20622;-90
2023/01/06 16:34:30;;;;;;;2.80;1.30;;;;;7.40;94505.00;;;;7408332;19;20144;-92
2023/01/06 16:37:02;;;;;;;1.30;1.20;;;;;7.50;94517.00;;;;7413573;19;20148;-91
2023/01/06 16:39:38;;;;;;;1.63;1.20;;;;;7.40;94500.00;;;;7410813;19;20148;-90
2023/01/06 16:42:38;;;;;;;1.70;1.13;;;;;7.40;94506.00;;;;7412877;19;20172;-92
2023/01/06 16:45:31;;;;;;;1.53;1.30;;;;;7.40;94500.00;;;;7411820;19;20165;-91
2023/01/06 16:48:02;;;;;;;1.33;1.10;;;;;7.30;94499.00;;;;7417047;19;20156;-90
2023/01/06 16:50:53;;;;;;;1.77;1.07;;;;;7.20;94502.00;;;;7413268;19;20806;-90
2023/01/06 16:53:23;;;;;;;1.43;1.30;;;;;7.00;94510.00;;;;7409202;19;20220;-81
2023/01/06 16:55:57;;;;;;;2.50;1.30;;;;;7.00;94504.00;;;;7398156;19;20156;-84
2023/01/06 16:58:33;;;;;;;1.23;1.13;;;;;7.00;94512.00;;;;7397314;19;20137;-84
2023/01/06 17:01:18;;;;;;;1.03;0.93;;;;;6.80;94513.00;;;;7397134;19;20160;-83
2023/01/06 17:03:57;;;;;;;1.20;1.00;;;;;6.80;94507.00;;;;7396937;19;20169;-83
2023/01/06 17:06:32;;;;;;;2.83;1.00;;;;;6.70;94503.00;;;;7397697;19;20163;-82
2023/01/06 17:09:19;;;;;;;3.73;1.40;;;;;6.70;94498.00;;;;7396382;19;20569;-83
2023/01/06 17:12:07;;;;;;;1.27;1.17;;;;;6.60;94496.00;;;;7394851;19;20156;-85
2023/01/06 17:14:51;;;;;;;1.33;1.20;;;;;6.40;94501.00;;;;7395144;19;20600;-83
2023/01/06 17:17:27;;;;;;;1.63;1.10;;;;;6.20;94503.00;;;;7395464;19;20594;-84
2023/01/06 17:20:11;;;;;;;1.80;1.00;;;;;5.90;94503.00;;;;7393399;19;20156;-85
2023/01/06 17:22:48;;;;;;;1.33;1.23;;;;;5.70;94505.00;;;;7398498;19;20775;-85
2023/01/06 17:25:19;;;;;;;1.30;1.20;;;;;5.60;94509.00;;;;7397890;19;20160;-85
2023/01/06 17:28:03;;;;;;;2.47;1.77;;;;;5.70;94513.00;;;;7399393;19;20139;-85
2023/01/06 17:30:31;;;;;;;1.83;1.40;;;;;5.70;94505.00;;;;7397020;19;20480;-86
2023/01/06 17:33:12;;;;;;;2.07;1.50;;;;;5.80;94508.00;;;;7396883;19;20148;-83
2023/01/06 17:35:47;;;;;;;1.70;1.40;;;;;5.90;94507.00;;;;7399938;19;20171;-82
2023/01/06 17:38:23;;;;;;;2.33;1.90;;;;;6.10;94506.00;;;;7399527;19;20129;-82
2023/01/06 17:40:53;;;;;;;1.60;1.50;;;;;6.10;94504.00;;;;7397510;19;20172;-82
2023/01/06 17:43:32;;;;;;;1.90;1.70;;;;;6.20;94510.00;;;;7397689;19;20153;-83
2023/01/06 17:46:34;;;;;;;2.37;1.63;;;;;6.20;94518.00;;;;7395467;19;20141;-85
2023/01/06 17:49:16;;;;;;;3.70;1.80;;;;;6.20;94520.00;;;;7394115;19;20161;-83
2023/01/06 17:51:55;;;;;;;1.40;1.20;;;;;6.30;94516.00;;;;7397327;19;20152;-84
2023/01/06 17:57:18;;;;;;;4.17;3.00;;;;;6.40;94525.00;;;;7397716;19;20494;-82
2023/01/06 17:59:48;;;;;;;3.53;2.90;;;;;6.40;94530.00;;;;7392736;19;20220;-83
2023/01/06 18:02:39;;;;;;;4.13;2.00;;;;;6.50;94524.00;;;;7396117;19;20597;-82
2023/01/06 18:05:25;;;;;;;2.60;2.00;;;;;6.50;94529.00;;;;7398051;19;20150;-83
2023/01/06 18:08:14;;;;;;;4.00;2.90;;;;;6.50;94529.00;;;;7396743;19;20488;-84
2023/01/06 18:10:56;;;;;;;2.20;1.77;;;;;6.50;94537.00;;;;7398513;19;20212;-84
2023/01/06 18:13:38;;;;;;;5.30;4.00;;;;;6.50;94536.00;;;;7396244;19;20152;-83
2023/01/06 18:16:26;;;;;;;5.53;3.77;;;;;6.60;94542.00;;;;7399127;19;20217;-84
2023/01/06 18:19:11;;;;;;;4.10;2.27;;;;;6.60;94536.00;;;;7395319;19;20151;-85
2023/01/06 18:21:48;;;;;;;1.83;1.40;;;;;6.50;94537.00;;;;7394024;19;20224;-85
2023/01/06 18:24:32;;;;;;;1.70;1.50;;;;;6.60;94541.00;;;;7396620;19;20212;-85
2023/01/06 18:27:21;;;;;;;1.60;1.50;;;;;6.60;94535.00;;;;7397012;19;20646;-85
2023/01/06 18:29:55;;;;;;;1.93;1.50;;;;;6.50;94536.00;;;;7398433;19;20136;-83
2023/01/06 18:32:35;;;;;;;2.03;1.70;;;;;6.60;94535.00;;;;7397597;19;20145;-85
2023/01/06 18:35:14;;;;;;;1.10;1.00;;;;;6.50;94511.00;;;;7396421;19;20129;-85
2023/01/06 18:37:48;;;;;;;1.30;1.20;;;;;6.50;94534.00;;;;7395946;19;20507;-86
2023/01/06 18:40:23;;;;;;;1.30;0.97;;;;;6.60;94534.00;;;;7396242;19;20145;-84
2023/01/06 18:42:57;;;;;;;2.13;1.10;;;;;6.60;94529.00;;;;7397644;19;20622;-83
2023/01/06 18:45:34;;;;;;;1.33;1.20;;;;;6.60;94530.00;;;;7397267;19;20148;-85
2023/01/06 18:48:36;;;;;;;1.63;1.10;;;;;6.50;94533.00;;;;7395581;19;20603;-86
2023/01/06 18:51:22;;;;;;;1.60;1.50;;;;;6.50;94529.00;;;;7396960;19;20205;-86
2023/01/06 18:53:56;;;;;;;3.00;1.80;;;;;6.90;94529.00;;;;7397517;19;20151;-84
2023/01/06 18:56:26;;;;;;;2.20;1.83;;;;;6.90;94530.00;;;;7398461;19;20535;-85
2023/01/06 18:58:57;;;;;;;3.37;2.10;;;;;6.90;94519.00;;;;7395593;19;20588;-86
2023/01/06 19:01:52;;;;;;;3.67;1.87;;;;;6.80;94515.00;;;;7395013;19;20143;-85
2023/01/06 19:04:31;;;;;;;2.37;1.87;;;;;6.70;94517.00;;;;7394740;19;20592;-83
2023/01/06 19:07:28;;;;;;;2.50;2.10;;;;;6.80;94524.00;;;;7393836;19;20144;-84
2023/01/06 19:09:57;;;;;;;2.77;1.70;;;;;6.80;94521.00;;;;7396673;19;20133;-84
2023/01/06 19:12:44;;;;;;;2.50;1.50;;;;;7.00;94530.00;;;;7396977;19;20144;-84
2023/01/06 19:15:25;;;;;;;1.87;1.73;;;;;6.90;94524.00;;;;7392157;19;20160;-85
2023/01/06 19:17:59;;;;;;;2.90;1.80;;;;;6.80;94519.00;;;;7396368;19;20136;-85
2023/01/06 19:20:33;;;;;;;2.10;1.90;;;;;6.80;94525.00;;;;7391333;19;20646;-85
2023/01/06 19:23:28;;;;;;;1.67;1.50;;;;;6.90;94517.00;;;;7395931;19;20583;-85
2023/01/06 19:26:04;;;;;;;2.43;1.47;;;;;6.90;94530.00;;;;7394778;19;20654;-84